sensor_id;sensor_type;location;lat;lon;timestamp;pressure;altitude;pressure_sealevel;temperature;humidity
46836;BME280;32573;51.290;6.926;2022-07-25T00:00:03;99769.09;;;22.20;100.00
46836;BME280;32573;51.290;6.926;2022-07-25T00:02:32;99765.59;;;22.16;100.00
46836;BME280;32573;51.290;6.926;2022-07-25T00:05:00;99763.00;;;22.13;100.00
46836;BME280;32573;51.290;6.926;2022-07-25T00:07:30;99747.09;;;22.10;100.00
46836;BME280;32573;51.290;6.926;2022-07-25T00:09:59;99742.72;;;22.07;100.00
46836;BME280;32573;51.290;6.926;2022-07-25T00:12:27;99734.75;;;22.06;100.00
46836;BME280;32573;51.290;6.926;2022-07-25T00:14:55;99725.97;;;22.02;100.00
46836;BME280;32573;51.290;6.926;2022-07-25T00:17:24;99730.47;;;22.00;100.00
46836;BME280;32573;51.290;6.926;2022-07-25T00:19:52;99724.38;;;21.95;100.00
46836;BME280;32573;51.290;6.926;2022-07-25T00:22:21;99713.75;;;21.93;100.00
46836;BME280;32573;51.290;6.926;2022-07-25T00:24:50;99713.84;;;21.90;100.00
46836;BME280;32573;51.290;6.926;2022-07-25T00:27:19;99709.47;;;21.88;100.00
46836;BME280;32573;51.290;6.926;2022-07-25T00:29:47;99709.50;;;21.86;100.00
46836;BME280;32573;51.290;6.926;2022-07-25T00:32:16;99715.78;;;21.84;100.00
46836;BME280;32573;51.290;6.926;2022-07-25T00:34:44;99710.50;;;21.82;100.00
46836;BME280;32573;51.290;6.926;2022-07-25T00:37:12;99713.19;;;21.81;100.00
46836;BME280;32573;51.290;6.926;2022-07-25T00:39:41;99707.03;;;21.79;100.00
46836;BME280;32573;51.290;6.926;2022-07-25T00:42:11;99697.28;;;21.78;100.00
46836;BME280;32573;51.290;6.926;2022-07-25T00:44:39;99707.09;;;21.75;100.00
46836;BME280;32573;51.290;6.926;2022-07-25T00:47:07;99708.03;;;21.74;100.00
46836;BME280;32573;51.290;6.926;2022-07-25T00:49:36;99708.09;;;21.71;100.00
46836;BME280;32573;51.290;6.926;2022-07-25T00:52:05;99696.66;;;21.68;100.00
46836;BME280;32573;51.290;6.926;2022-07-25T00:54:33;99694.84;;;21.68;100.00
46836;BME280;32573;51.290;6.926;2022-07-25T00:57:02;99696.66;;;21.68;100.00
46836;BME280;32573;51.290;6.926;2022-07-25T00:59:32;99698.44;;;21.67;100.00
46836;BME280;32573;51.290;6.926;2022-07-25T01:02:00;99697.50;;;21.68;100.00
46836;BME280;32573;51.290;6.926;2022-07-25T01:04:30;99693.13;;;21.67;100.00
46836;BME280;32573;51.290;6.926;2022-07-25T01:06:59;99694.91;;;21.67;100.00
46836;BME280;32573;51.290;6.926;2022-07-25T01:09:28;99686.09;;;21.63;100.00
46836;BME280;32573;51.290;6.926;2022-07-25T01:11:56;99687.03;;;21.62;100.00
46836;BME280;32573;51.290;6.926;2022-07-25T01:14:25;99691.41;;;21.65;100.00
46836;BME280;32573;51.290;6.926;2022-07-25T01:16:54;99685.25;;;21.61;100.00
46836;BME280;32573;51.290;6.926;2022-07-25T01:19:23;99689.72;;;21.61;100.00
46836;BME280;32573;51.290;6.926;2022-07-25T01:21:53;99694.19;;;21.60;100.00
46836;BME280;32573;51.290;6.926;2022-07-25T01:24:22;99680.00;;;21.60;100.00
46836;BME280;32573;51.290;6.926;2022-07-25T01:26:50;99682.69;;;21.58;100.00
46836;BME280;32573;51.290;6.926;2022-07-25T01:29:19;99683.59;;;21.57;100.00
46836;BME280;32573;51.290;6.926;2022-07-25T01:31:47;99681.84;;;21.56;100.00
46836;BME280;32573;51.290;6.926;2022-07-25T01:34:15;99683.66;;;21.54;100.00
46836;BME280;32573;51.290;6.926;2022-07-25T01:36:44;99680.13;;;21.53;100.00
46836;BME280;32573;51.290;6.926;2022-07-25T01:39:14;99690.84;;;21.52;100.00
46836;BME280;32573;51.290;6.926;2022-07-25T01:41:42;99686.41;;;21.51;100.00
46836;BME280;32573;51.290;6.926;2022-07-25T01:44:10;99681.13;;;21.49;100.00
46836;BME280;32573;51.290;6.926;2022-07-25T01:46:39;99674.91;;;21.49;100.00
46836;BME280;32573;51.290;6.926;2022-07-25T01:49:07;99679.38;;;21.48;100.00
46836;BME280;32573;51.290;6.926;2022-07-25T01:51:36;99676.69;;;21.48;100.00
46836;BME280;32573;51.290;6.926;2022-07-25T01:54:04;99672.31;;;21.47;100.00
46836;BME280;32573;51.290;6.926;2022-07-25T01:56:42;99667.88;;;21.46;100.00
46836;BME280;32573;51.290;6.926;2022-07-25T01:59:13;99676.75;;;21.47;100.00
46836;BME280;32573;51.290;6.926;2022-07-25T02:01:41;99659.88;;;21.46;100.00
46836;BME280;32573;51.290;6.926;2022-07-25T02:04:10;99666.09;;;21.47;100.00
46836;BME280;32573;51.290;6.926;2022-07-25T02:06:39;99659.88;;;21.46;100.00
46836;BME280;32573;51.290;6.926;2022-07-25T02:09:07;99669.66;;;21.46;100.00
46836;BME280;32573;51.290;6.926;2022-07-25T02:11:38;99661.72;;;21.44;100.00
46836;BME280;32573;51.290;6.926;2022-07-25T02:14:06;99659.06;;;21.44;100.00
46836;BME280;32573;51.290;6.926;2022-07-25T02:16:35;99659.09;;;21.43;100.00
46836;BME280;32573;51.290;6.926;2022-07-25T02:19:03;99655.59;;;21.41;100.00
46836;BME280;32573;51.290;6.926;2022-07-25T02:21:32;99653.84;;;21.40;100.00
46836;BME280;32573;51.290;6.926;2022-07-25T02:24:00;99651.19;;;21.38;100.00
46836;BME280;32573;51.290;6.926;2022-07-25T02:26:29;99646.78;;;21.37;100.00
46836;BME280;32573;51.290;6.926;2022-07-25T02:28:59;99644.13;;;21.36;100.00
46836;BME280;32573;51.290;6.926;2022-07-25T02:31:27;99644.16;;;21.34;100.00
46836;BME280;32573;51.290;6.926;2022-07-25T02:33:55;99635.38;;;21.32;100.00
46836;BME280;32573;51.290;6.926;2022-07-25T02:36:24;99645.19;;;21.28;100.00
46836;BME280;32573;51.290;6.926;2022-07-25T02:38:52;99636.38;;;21.26;100.00
46836;BME280;32573;51.290;6.926;2022-07-25T02:41:20;99632.91;;;21.24;100.00
46836;BME280;32573;51.290;6.926;2022-07-25T02:43:49;99631.19;;;21.22;100.00
46836;BME280;32573;51.290;6.926;2022-07-25T02:46:19;99624.16;;;21.19;100.00
46836;BME280;32573;51.290;6.926;2022-07-25T02:48:47;99621.53;;;21.16;100.00
46836;BME280;32573;51.290;6.926;2022-07-25T02:51:16;99620.69;;;21.14;100.00
46836;BME280;32573;51.290;6.926;2022-07-25T02:53:44;99615.44;;;21.11;100.00
46836;BME280;32573;51.290;6.926;2022-07-25T02:56:24;99607.56;;;21.06;100.00
46836;BME280;32573;51.290;6.926;2022-07-25T02:58:56;99607.63;;;21.05;100.00
46836;BME280;32573;51.290;6.926;2022-07-25T03:01:26;99612.97;;;21.03;100.00
46836;BME280;32573;51.290;6.926;2022-07-25T03:03:55;99614.84;;;21.00;100.00
46836;BME280;32573;51.290;6.926;2022-07-25T03:06:23;99606.94;;;20.97;100.00
46836;BME280;32573;51.290;6.926;2022-07-25T03:08:51;99604.31;;;20.94;100.00
46836;BME280;32573;51.290;6.926;2022-07-25T03:11:20;99604.41;;;20.90;100.00
46836;BME280;32573;51.290;6.926;2022-07-25T03:13:48;99599.09;;;20.89;100.00
46836;BME280;32573;51.290;6.926;2022-07-25T03:16:17;99598.31;;;20.85;100.00
46836;BME280;32573;51.290;6.926;2022-07-25T03:18:46;99594.81;;;20.83;100.00
46836;BME280;32573;51.290;6.926;2022-07-25T03:21:15;99591.31;;;20.81;100.00
46836;BME280;32573;51.290;6.926;2022-07-25T03:23:43;99596.63;;;20.81;100.00
46836;BME280;32573;51.290;6.926;2022-07-25T03:26:18;99593.16;;;20.79;100.00
46836;BME280;32573;51.290;6.926;2022-07-25T03:28:47;99591.38;;;20.78;100.00
46836;BME280;32573;51.290;6.926;2022-07-25T03:31:15;99587.00;;;20.77;100.00
46836;BME280;32573;51.290;6.926;2022-07-25T03:33:44;99584.31;;;20.77;100.00
46836;BME280;32573;51.290;6.926;2022-07-25T03:36:14;99584.38;;;20.74;100.00
46836;BME280;32573;51.290;6.926;2022-07-25T03:38:42;99579.97;;;20.73;100.00
46836;BME280;32573;51.290;6.926;2022-07-25T03:41:11;99576.44;;;20.73;100.00
46836;BME280;32573;51.290;6.926;2022-07-25T03:43:40;99579.13;;;20.71;100.00
46836;BME280;32573;51.290;6.926;2022-07-25T03:46:08;99575.59;;;20.72;100.00
46836;BME280;32573;51.290;6.926;2022-07-25T03:48:37;99569.34;;;20.72;100.00
46836;BME280;32573;51.290;6.926;2022-07-25T03:51:05;99567.59;;;20.72;100.00
46836;BME280;32573;51.290;6.926;2022-07-25T03:53:35;99570.25;;;20.72;100.00
46836;BME280;32573;51.290;6.926;2022-07-25T03:56:24;99559.63;;;20.72;100.00
46836;BME280;32573;51.290;6.926;2022-07-25T03:58:52;99557.78;;;20.74;100.00
46836;BME280;32573;51.290;6.926;2022-07-25T04:01:21;99555.97;;;20.76;100.00
46836;BME280;32573;51.290;6.926;2022-07-25T04:03:52;99555.06;;;20.77;100.00
46836;BME280;32573;51.290;6.926;2022-07-25T04:06:21;99550.59;;;20.79;100.00
46836;BME280;32573;51.290;6.926;2022-07-25T04:08:52;99556.72;;;20.81;100.00
46836;BME280;32573;51.290;6.926;2022-07-25T04:11:21;99562.00;;;20.84;100.00
46836;BME280;32573;51.290;6.926;2022-07-25T04:13:50;99550.41;;;20.87;100.00
46836;BME280;32573;51.290;6.926;2022-07-25T04:16:19;99556.50;;;20.90;100.00
46836;BME280;32573;51.290;6.926;2022-07-25T04:18:49;99548.44;;;20.94;100.00
46836;BME280;32573;51.290;6.926;2022-07-25T04:21:18;99551.88;;;20.99;100.00
46836;BME280;32573;51.290;6.926;2022-07-25T04:23:46;99543.84;;;21.02;100.00
46836;BME280;32573;51.290;6.926;2022-07-25T04:26:16;99544.63;;;21.05;100.00
46836;BME280;32573;51.290;6.926;2022-07-25T04:28:45;99535.69;;;21.08;100.00
46836;BME280;32573;51.290;6.926;2022-07-25T04:31:14;99538.25;;;21.11;100.00
46836;BME280;32573;51.290;6.926;2022-07-25T04:33:42;99534.63;;;21.14;100.00
46836;BME280;32573;51.290;6.926;2022-07-25T04:36:12;99537.19;;;21.18;100.00
46836;BME280;32573;51.290;6.926;2022-07-25T04:38:40;99539.75;;;21.21;100.00
46836;BME280;32573;51.290;6.926;2022-07-25T04:41:08;99542.38;;;21.24;100.00
46836;BME280;32573;51.290;6.926;2022-07-25T04:43:39;99538.69;;;21.28;100.00
46836;BME280;32573;51.290;6.926;2022-07-25T04:46:17;99530.59;;;21.33;100.00
46836;BME280;32573;51.290;6.926;2022-07-25T04:48:46;99532.25;;;21.39;100.00
46836;BME280;32573;51.290;6.926;2022-07-25T04:51:15;99519.66;;;21.45;100.00
46836;BME280;32573;51.290;6.926;2022-07-25T04:53:43;99519.53;;;21.50;100.00
46836;BME280;32573;51.290;6.926;2022-07-25T04:56:12;99520.28;;;21.55;100.00
46836;BME280;32573;51.290;6.926;2022-07-25T04:58:41;99512.16;;;21.60;100.00
46836;BME280;32573;51.290;6.926;2022-07-25T05:01:10;99518.16;;;21.66;100.00
46836;BME280;32573;51.290;6.926;2022-07-25T05:03:38;99520.72;;;21.71;100.00
46836;BME280;32573;51.290;6.926;2022-07-25T05:06:16;99520.59;;;21.75;100.00
46836;BME280;32573;51.290;6.926;2022-07-25T05:08:44;99521.31;;;21.81;100.00
46836;BME280;32573;51.290;6.926;2022-07-25T05:11:13;99511.47;;;21.84;100.00
46836;BME280;32573;51.290;6.926;2022-07-25T05:13:42;99512.25;;;21.88;100.00
46836;BME280;32573;51.290;6.926;2022-07-25T05:16:11;99506.78;;;21.92;100.00
46836;BME280;32573;51.290;6.926;2022-07-25T05:18:39;99505.72;;;21.98;100.00
46836;BME280;32573;51.290;6.926;2022-07-25T05:21:09;99502.97;;;22.01;100.00
46836;BME280;32573;51.290;6.926;2022-07-25T05:23:38;99503.69;;;22.06;100.00
46836;BME280;32573;51.290;6.926;2022-07-25T05:26:06;99496.50;;;22.10;100.00
46836;BME280;32573;51.290;6.926;2022-07-25T05:28:35;99491.94;;;22.13;100.00
46836;BME280;32573;51.290;6.926;2022-07-25T05:31:05;99488.25;;;22.17;100.00
46836;BME280;32573;51.290;6.926;2022-07-25T05:33:33;99496.16;;;22.22;100.00
46836;BME280;32573;51.290;6.926;2022-07-25T05:36:02;99503.19;;;22.25;100.00
46836;BME280;32573;51.290;6.926;2022-07-25T05:38:31;99498.59;;;22.30;100.00
46836;BME280;32573;51.290;6.926;2022-07-25T05:40:59;99494.88;;;22.34;100.00
46836;BME280;32573;51.290;6.926;2022-07-25T05:43:28;99488.56;;;22.36;100.00
46836;BME280;32573;51.290;6.926;2022-07-25T05:45:59;99485.88;;;22.38;100.00
46836;BME280;32573;51.290;6.926;2022-07-25T05:48:29;99487.56;;;22.40;100.00
46836;BME280;32573;51.290;6.926;2022-07-25T05:50:58;99489.28;;;22.43;100.00
46836;BME280;32573;51.290;6.926;2022-07-25T05:53:26;99485.63;;;22.46;100.00
46836;BME280;32573;51.290;6.926;2022-07-25T05:55:55;99476.66;;;22.48;100.00
46836;BME280;32573;51.290;6.926;2022-07-25T05:58:23;99474.81;;;22.50;100.00
46836;BME280;32573;51.290;6.926;2022-07-25T06:00:56;99474.72;;;22.53;100.00
46836;BME280;32573;51.290;6.926;2022-07-25T06:03:24;99467.53;;;22.55;100.00
46836;BME280;32573;51.290;6.926;2022-07-25T06:05:55;99470.09;;;22.58;100.00
46836;BME280;32573;51.290;6.926;2022-07-25T06:08:23;99474.41;;;22.63;100.00
46836;BME280;32573;51.290;6.926;2022-07-25T06:10:55;99474.31;;;22.66;100.00
46836;BME280;32573;51.290;6.926;2022-07-25T06:13:24;99469.78;;;22.69;100.00
46836;BME280;32573;51.290;6.926;2022-07-25T06:15:54;99467.84;;;22.73;100.00
46836;BME280;32573;51.290;6.926;2022-07-25T06:18:23;99466.84;;;22.77;100.00
46836;BME280;32573;51.290;6.926;2022-07-25T06:20:52;99467.59;;;22.80;100.00
46836;BME280;32573;51.290;6.926;2022-07-25T06:23:22;99465.72;;;22.84;100.00
46836;BME280;32573;51.290;6.926;2022-07-25T06:25:54;99464.78;;;22.85;100.00
46836;BME280;32573;51.290;6.926;2022-07-25T06:28:22;99465.53;;;22.89;100.00
46836;BME280;32573;51.290;6.926;2022-07-25T06:30:51;99461.88;;;22.91;100.00
46836;BME280;32573;51.290;6.926;2022-07-25T06:33:19;99468.06;;;22.93;100.00
46836;BME280;32573;51.290;6.926;2022-07-25T06:35:47;99456.41;;;22.96;100.00
46836;BME280;32573;51.290;6.926;2022-07-25T06:38:16;99467.91;;;22.99;100.00
46836;BME280;32573;51.290;6.926;2022-07-25T06:40:46;99468.59;;;23.04;100.00
46836;BME280;32573;51.290;6.926;2022-07-25T06:43:14;99470.22;;;23.09;100.00
46836;BME280;32573;51.290;6.926;2022-07-25T06:45:42;99462.88;;;23.15;100.00
46836;BME280;32573;51.290;6.926;2022-07-25T06:48:13;99470.63;;;23.23;100.00
46836;BME280;32573;51.290;6.926;2022-07-25T06:50:42;99466.78;;;23.32;100.00
46836;BME280;32573;51.290;6.926;2022-07-25T06:53:10;99463.00;;;23.37;100.00
46836;BME280;32573;51.290;6.926;2022-07-25T06:55:39;99472.53;;;23.44;100.00
46836;BME280;32573;51.290;6.926;2022-07-25T06:58:09;99467.91;;;23.50;100.00
46836;BME280;32573;51.290;6.926;2022-07-25T07:00:37;99466.78;;;23.55;100.00
46836;BME280;32573;51.290;6.926;2022-07-25T07:03:06;99465.69;;;23.61;100.00
46836;BME280;32573;51.290;6.926;2022-07-25T07:05:34;99465.47;;;23.67;100.00
46836;BME280;32573;51.290;6.926;2022-07-25T07:08:05;99457.25;;;23.73;100.00
46836;BME280;32573;51.290;6.926;2022-07-25T07:10:33;99452.59;;;23.78;100.00
46836;BME280;32573;51.290;6.926;2022-07-25T07:13:03;99449.72;;;23.84;100.00
46836;BME280;32573;51.290;6.926;2022-07-25T07:15:36;99448.59;;;23.90;100.00
46836;BME280;32573;51.290;6.926;2022-07-25T07:18:04;99450.16;;;23.96;100.00
46836;BME280;32573;51.290;6.926;2022-07-25T07:20:33;99445.50;;;24.01;100.00
46836;BME280;32573;51.290;6.926;2022-07-25T07:23:02;99444.47;;;24.05;100.00
46836;BME280;32573;51.290;6.926;2022-07-25T07:25:32;99449.56;;;24.11;100.00
46836;BME280;32573;51.290;6.926;2022-07-25T07:28:00;99443.97;;;24.17;100.00
46836;BME280;32573;51.290;6.926;2022-07-25T07:30:30;99442.00;;;24.22;100.00
46836;BME280;32573;51.290;6.926;2022-07-25T07:33:20;99442.53;;;24.30;100.00
46836;BME280;32573;51.290;6.926;2022-07-25T07:35:48;99449.44;;;24.36;100.00
46836;BME280;32573;51.290;6.926;2022-07-25T07:38:16;99445.69;;;24.42;100.00
46836;BME280;32573;51.290;6.926;2022-07-25T07:40:45;99441.91;;;24.47;100.00
46836;BME280;32573;51.290;6.926;2022-07-25T07:43:13;99448.75;;;24.54;100.00
46836;BME280;32573;51.290;6.926;2022-07-25T07:45:42;99451.16;;;24.61;100.00
46836;BME280;32573;51.290;6.926;2022-07-25T07:48:11;99456.19;;;24.68;100.00
46836;BME280;32573;51.290;6.926;2022-07-25T07:50:41;99453.28;;;24.74;100.00
46836;BME280;32573;51.290;6.926;2022-07-25T07:53:09;99447.53;;;24.84;100.00
46836;BME280;32573;51.290;6.926;2022-07-25T07:55:37;99452.47;;;24.93;100.00
46836;BME280;32573;51.290;6.926;2022-07-25T07:58:16;99445.88;;;25.02;100.00
46836;BME280;32573;51.290;6.926;2022-07-25T08:00:46;99443.69;;;25.11;100.00
46836;BME280;32573;51.290;6.926;2022-07-25T08:03:19;99445.16;;;25.18;100.00
46836;BME280;32573;51.290;6.926;2022-07-25T08:05:49;99447.59;;;25.25;100.00
46836;BME280;32573;51.290;6.926;2022-07-25T08:08:18;99452.66;;;25.31;100.00
46836;BME280;32573;51.290;6.926;2022-07-25T08:10:47;99455.94;;;25.37;100.00
46836;BME280;32573;51.290;6.926;2022-07-25T08:13:20;99459.22;;;25.44;100.00
46836;BME280;32573;51.290;6.926;2022-07-25T08:15:51;99453.59;;;25.50;100.00
46836;BME280;32573;51.290;6.926;2022-07-25T08:18:22;99463.09;;;25.57;100.00
46836;BME280;32573;51.290;6.926;2022-07-25T08:20:54;99457.47;;;25.64;100.00
46836;BME280;32573;51.290;6.926;2022-07-25T08:23:22;99455.44;;;25.69;100.00
46836;BME280;32573;51.290;6.926;2022-07-25T08:25:56;99463.19;;;25.75;100.00
46836;BME280;32573;51.290;6.926;2022-07-25T08:28:25;99455.81;;;25.80;100.00
46836;BME280;32573;51.290;6.926;2022-07-25T08:30:53;99460.03;;;25.86;100.00
46836;BME280;32573;51.290;6.926;2022-07-25T08:33:22;99466.16;;;25.89;100.00
46836;BME280;32573;51.290;6.926;2022-07-25T08:35:54;99476.69;;;25.94;100.00
46836;BME280;32573;51.290;6.926;2022-07-25T08:38:26;99470.19;;;25.98;100.00
46836;BME280;32573;51.290;6.926;2022-07-25T08:40:56;99460.34;;;25.98;100.00
46836;BME280;32573;51.290;6.926;2022-07-25T08:43:25;99458.47;;;26.00;100.00
46836;BME280;32573;51.290;6.926;2022-07-25T08:45:59;99470.00;;;26.02;100.00
46836;BME280;32573;51.290;6.926;2022-07-25T08:48:28;99453.91;;;26.02;100.00
46836;BME280;32573;51.290;6.926;2022-07-25T08:50:58;99452.00;;;26.04;100.00
46836;BME280;32573;51.290;6.926;2022-07-25T08:53:28;99463.63;;;26.05;100.00
46836;BME280;32573;51.290;6.926;2022-07-25T08:56:00;99461.66;;;26.09;100.00
46836;BME280;32573;51.290;6.926;2022-07-25T08:58:38;99452.50;;;26.13;100.00
46836;BME280;32573;51.290;6.926;2022-07-25T09:01:07;99451.59;;;26.14;100.00
46836;BME280;32573;51.290;6.926;2022-07-25T09:03:36;99476.66;;;26.13;100.00
46836;BME280;32573;51.290;6.926;2022-07-25T09:06:16;99466.88;;;26.12;100.00
46836;BME280;32573;51.290;6.926;2022-07-25T09:08:54;99468.69;;;26.11;100.00
46836;BME280;32573;51.290;6.926;2022-07-25T09:11:30;99461.53;;;26.12;100.00
46836;BME280;32573;51.290;6.926;2022-07-25T09:14:00;99462.31;;;26.14;100.00
46836;BME280;32573;51.290;6.926;2022-07-25T09:16:33;99464.03;;;26.15;100.00
46836;BME280;32573;51.290;6.926;2022-07-25T09:19:12;99456.81;;;26.17;100.00
46836;BME280;32573;51.290;6.926;2022-07-25T09:21:56;99458.41;;;26.21;100.00
46836;BME280;32573;51.290;6.926;2022-07-25T09:24:32;99470.72;;;26.25;100.00
46836;BME280;32573;51.290;6.926;2022-07-25T09:27:12;99474.19;;;26.27;100.00
46836;BME280;32573;51.290;6.926;2022-07-25T09:29:54;99469.41;;;26.34;100.00
46836;BME280;32573;51.290;6.926;2022-07-25T09:32:26;99471.78;;;26.40;100.00
46836;BME280;32573;51.290;6.926;2022-07-25T09:35:03;99461.69;;;26.45;100.00
46836;BME280;32573;51.290;6.926;2022-07-25T09:37:36;99485.63;;;26.50;100.00
46836;BME280;32573;51.290;6.926;2022-07-25T09:40:16;99491.63;;;26.56;100.00
46836;BME280;32573;51.290;6.926;2022-07-25T09:42:55;99476.97;;;26.63;100.00
46836;BME280;32573;51.290;6.926;2022-07-25T09:45:28;99477.44;;;26.72;100.00
46836;BME280;32573;51.290;6.926;2022-07-25T09:47:59;99486.19;;;26.75;100.00
46836;BME280;32573;51.290;6.926;2022-07-25T09:50:29;99487.78;;;26.79;100.00
46836;BME280;32573;51.290;6.926;2022-07-25T09:53:00;99491.28;;;26.81;100.00
46836;BME280;32573;51.290;6.926;2022-07-25T09:55:30;99491.13;;;26.84;100.00
46836;BME280;32573;51.290;6.926;2022-07-25T09:57:59;99490.03;;;26.88;100.00
46836;BME280;32573;51.290;6.926;2022-07-25T10:00:28;99499.66;;;26.93;100.00
46836;BME280;32573;51.290;6.926;2022-07-25T10:03:09;99510.41;;;26.93;100.00
46836;BME280;32573;51.290;6.926;2022-07-25T10:06:01;99510.56;;;26.89;100.00
46836;BME280;32573;51.290;6.926;2022-07-25T10:08:36;99512.59;;;26.84;100.00
46836;BME280;32573;51.290;6.926;2022-07-25T10:11:11;99508.31;;;26.80;100.00
46836;BME280;32573;51.290;6.926;2022-07-25T10:13:45;99512.13;;;26.76;100.00
46836;BME280;32573;51.290;6.926;2022-07-25T10:16:15;99529.34;;;26.72;100.00
46836;BME280;32573;51.290;6.926;2022-07-25T10:18:49;99535.72;;;26.70;100.00
46836;BME280;32573;51.290;6.926;2022-07-25T10:21:19;99533.25;;;26.65;100.00
46836;BME280;32573;51.290;6.926;2022-07-25T10:24:01;99530.78;;;26.60;100.00
46836;BME280;32573;51.290;6.926;2022-07-25T10:26:31;99531.81;;;26.58;100.00
46836;BME280;32573;51.290;6.926;2022-07-25T10:29:00;99520.25;;;26.56;100.00
46836;BME280;32573;51.290;6.926;2022-07-25T10:31:34;99504.38;;;26.51;100.00
46836;BME280;32573;51.290;6.926;2022-07-25T10:34:04;99509.81;;;26.50;100.00
46836;BME280;32573;51.290;6.926;2022-07-25T10:36:44;99514.53;;;26.44;100.00
46836;BME280;32573;51.290;6.926;2022-07-25T10:39:16;99500.47;;;26.39;100.00
46836;BME280;32573;51.290;6.926;2022-07-25T10:41:50;99499.59;;;26.39;100.00
46836;BME280;32573;51.290;6.926;2022-07-25T10:44:19;99495.09;;;26.39;100.00
46836;BME280;32573;51.290;6.926;2022-07-25T10:46:47;99495.00;;;26.41;100.00
46836;BME280;32573;51.290;6.926;2022-07-25T10:49:18;99491.31;;;26.43;100.00
46836;BME280;32573;51.290;6.926;2022-07-25T10:51:59;99494.66;;;26.49;100.00
46836;BME280;32573;51.290;6.926;2022-07-25T10:54:34;99494.22;;;26.58;100.00
46836;BME280;32573;51.290;6.926;2022-07-25T10:57:04;99480.56;;;26.62;100.00
46836;BME280;32573;51.290;6.926;2022-07-25T10:59:34;99485.94;;;26.62;100.00
46836;BME280;32573;51.290;6.926;2022-07-25T11:02:05;99492.91;;;26.66;100.00
46836;BME280;32573;51.290;6.926;2022-07-25T11:04:34;99506.13;;;26.71;100.00
46836;BME280;32573;51.290;6.926;2022-07-25T11:07:07;99513.84;;;26.77;100.00
46836;BME280;32573;51.290;6.926;2022-07-25T11:09:37;99514.56;;;26.81;100.00
46836;BME280;32573;51.290;6.926;2022-07-25T11:12:06;99519.72;;;26.85;100.00
46836;BME280;32573;51.290;6.926;2022-07-25T11:14:37;99525.72;;;26.90;100.00
46836;BME280;32573;51.290;6.926;2022-07-25T11:17:12;99520.06;;;26.97;100.00
46836;BME280;32573;51.290;6.926;2022-07-25T11:19:44;99520.47;;;27.06;100.00
46836;BME280;32573;51.290;6.926;2022-07-25T11:22:20;99511.84;;;27.17;100.00
46836;BME280;32573;51.290;6.926;2022-07-25T11:24:50;99512.06;;;27.31;100.00
46836;BME280;32573;51.290;6.926;2022-07-25T11:27:23;99513.16;;;27.45;100.00
46836;BME280;32573;51.290;6.926;2022-07-25T11:30:05;99507.13;;;27.57;100.00
46836;BME280;32573;51.290;6.926;2022-07-25T11:32:38;99513.75;;;27.67;100.00
46836;BME280;32573;51.290;6.926;2022-07-25T11:35:09;99523.41;;;27.71;100.00
46836;BME280;32573;51.290;6.926;2022-07-25T11:37:40;99526.09;;;27.71;100.00
46836;BME280;32573;51.290;6.926;2022-07-25T11:40:11;99524.34;;;27.70;100.00
46836;BME280;32573;51.290;6.926;2022-07-25T11:42:44;99531.31;;;27.74;100.00
46836;BME280;32573;51.290;6.926;2022-07-25T11:45:18;99531.13;;;27.78;100.00
46836;BME280;32573;51.290;6.926;2022-07-25T11:47:48;99530.50;;;27.72;100.00
46836;BME280;32573;51.290;6.926;2022-07-25T11:50:17;99528.16;;;27.66;100.00
46836;BME280;32573;51.290;6.926;2022-07-25T11:52:58;99542.53;;;27.65;100.00
46836;BME280;32573;51.290;6.926;2022-07-25T11:55:30;99540.56;;;27.69;100.00
46836;BME280;32573;51.290;6.926;2022-07-25T11:58:00;99544.75;;;27.74;100.00
46836;BME280;32573;51.290;6.926;2022-07-25T12:00:29;99540.97;;;27.79;100.00
46836;BME280;32573;51.290;6.926;2022-07-25T12:03:05;99542.06;;;27.74;100.00
46836;BME280;32573;51.290;6.926;2022-07-25T12:05:34;99539.72;;;27.68;100.00
46836;BME280;32573;51.290;6.926;2022-07-25T12:08:08;99545.34;;;27.64;100.00
46836;BME280;32573;51.290;6.926;2022-07-25T12:10:39;99535.44;;;27.64;100.00
46836;BME280;32573;51.290;6.926;2022-07-25T12:13:08;99538.75;;;27.69;100.00
46836;BME280;32573;51.290;6.926;2022-07-25T12:15:38;99538.59;;;27.72;100.00
46836;BME280;32573;51.290;6.926;2022-07-25T12:18:08;99537.31;;;27.80;100.00
46836;BME280;32573;51.290;6.926;2022-07-25T12:20:40;99533.53;;;27.84;100.00
46836;BME280;32573;51.290;6.926;2022-07-25T12:23:10;99537.66;;;27.91;100.00
46836;BME280;32573;51.290;6.926;2022-07-25T12:25:41;99544.97;;;28.05;100.00
46836;BME280;32573;51.290;6.926;2022-07-25T12:28:10;99538.38;;;28.10;100.00
46836;BME280;32573;51.290;6.926;2022-07-25T12:30:40;99535.34;;;28.16;100.00
46836;BME280;32573;51.290;6.926;2022-07-25T12:33:09;99528.69;;;28.24;100.00
46836;BME280;32573;51.290;6.926;2022-07-25T12:35:39;99541.19;;;28.25;100.00
46836;BME280;32573;51.290;6.926;2022-07-25T12:38:08;99533.91;;;28.27;100.00
46836;BME280;32573;51.290;6.926;2022-07-25T12:40:37;99550.91;;;28.27;100.00
46836;BME280;32573;51.290;6.926;2022-07-25T12:43:07;99550.38;;;28.21;100.00
46836;BME280;32573;51.290;6.926;2022-07-25T12:45:36;99559.41;;;28.20;100.00
46836;BME280;32573;51.290;6.926;2022-07-25T12:48:05;99548.03;;;28.14;100.00
46836;BME280;32573;51.290;6.926;2022-07-25T12:50:33;99551.50;;;28.16;100.00
46836;BME280;32573;51.290;6.926;2022-07-25T12:53:02;99550.53;;;28.17;100.00
46836;BME280;32573;51.290;6.926;2022-07-25T12:55:31;99552.13;;;28.22;100.00
46836;BME280;32573;51.290;6.926;2022-07-25T12:57:59;99549.09;;;28.28;100.00
46836;BME280;32573;51.290;6.926;2022-07-25T13:00:29;99545.97;;;28.35;100.00
46836;BME280;32573;51.290;6.926;2022-07-25T13:02:58;99548.25;;;28.43;100.00
46836;BME280;32573;51.290;6.926;2022-07-25T13:05:26;99550.56;;;28.51;100.00